Warrensburg, Missouri
Current Conditions -  °F | °C
As of 11:35 PM on Saturday 20 Dec 2014 (Local Time) from KRCM Reporting Station
Broken Clouds Broken Clouds  
Wind Chill: 31°   Ceiling: 2200
Heat Index: 36°   Visibility: 10mi
Dew Point: 32°   Wind: 6mph
Humidity: 87%   Direction: 160°SSE
Pressure: 30.16"   Gusts: NA
Location:  38.77°N, 93.74°W
Report Text: KRCM 210535Z AUTO 16005KT 10SM BKN022 02/00 A3016 RMK AO2
Loading
Personal Weather Stations






























Interactive Weather Map New forecast layout! Learn more

10-Day Weather Forecast

Advertisements
Track Severe Weather on mobile